createdAt,value
2022-10-22T00:02:56.249Z,76.46
2022-10-22T00:05:58.309Z,78.44
2022-10-22T00:09:00.205Z,78.89
2022-10-22T00:12:03.256Z,79.38
2022-10-22T00:15:06.373Z,78.02
2022-10-22T00:18:08.524Z,77.89
2022-10-22T00:21:13.257Z,77.56
2022-10-22T00:24:15.723Z,77.38
2022-10-22T00:27:17.538Z,78.33
2022-10-22T00:30:19.637Z,77.90
2022-10-22T00:33:22.724Z,77.40
2022-10-22T00:36:24.680Z,77.37
2022-10-22T00:39:27.813Z,77.56
2022-10-22T00:42:30.597Z,78.13
2022-10-22T00:45:32.392Z,77.89
2022-10-22T00:48:34.534Z,78.36
2022-10-22T00:51:36.669Z,78.06
2022-10-22T00:54:38.961Z,78.44
2022-10-22T00:57:41.193Z,78.97
2022-10-22T01:00:45.164Z,78.83
2022-10-22T01:03:48.469Z,78.18
2022-10-22T01:06:50.254Z,77.75
2022-10-22T01:10:13.828Z,78.29
2022-10-22T01:13:41.303Z,78.67
2022-10-22T01:17:13.971Z,79.53
2022-10-22T01:20:31.617Z,80.68
2022-10-22T01:24:05.356Z,81.36
2022-10-22T01:27:13.434Z,80.84
2022-10-22T01:30:16.231Z,80.43
2022-10-22T01:33:20.132Z,80.13
2022-10-22T01:36:22.564Z,80.28
2022-10-22T01:39:26.073Z,80.15
2022-10-22T01:42:28.649Z,80.22
2022-10-22T01:45:33.859Z,78.90
2022-10-22T01:48:47.747Z,79.54
2022-10-22T01:51:52.827Z,79.98
2022-10-22T01:55:16.742Z,79.50
2022-10-22T01:58:58.232Z,79.37
2022-10-22T02:02:05.665Z,79.53
2022-10-22T02:05:07.863Z,80.53
2022-10-22T02:08:12.715Z,79.59
2022-10-22T02:11:16.331Z,79.80
2022-10-22T02:14:19.606Z,79.54
2022-10-22T02:17:24.004Z,79.22
2022-10-22T02:20:32.141Z,79.75
2022-10-22T02:23:34.190Z,80.06
2022-10-22T02:27:01.596Z,79.88
2022-10-22T02:30:09.281Z,79.66
2022-10-22T02:33:13.036Z,80.33
2022-10-22T02:36:17.707Z,80.31
2022-10-22T02:39:20.850Z,80.13
2022-10-22T02:42:26.359Z,79.62
2022-10-22T02:45:28.103Z,79.75
2022-10-22T02:48:29.916Z,80.26
2022-10-22T02:51:32.268Z,80.45
2022-10-22T02:54:34.232Z,80.14
2022-10-22T02:57:36.140Z,79.47
2022-10-22T03:00:38.621Z,79.70
2022-10-22T03:03:40.418Z,79.97
2022-10-22T03:06:44.734Z,80.29
2022-10-22T03:09:46.787Z,81.06
2022-10-22T03:12:48.711Z,80.67
2022-10-22T03:15:51.164Z,80.41
2022-10-22T03:18:52.878Z,80.66
2022-10-22T03:22:01.606Z,80.23
2022-10-22T03:25:08.277Z,79.88
2022-10-22T03:28:11.243Z,79.92
2022-10-22T03:31:13.538Z,79.75
2022-10-22T03:34:15.448Z,80.37
2022-10-22T03:37:17.451Z,80.37
2022-10-22T03:40:20.114Z,80.68
2022-10-22T03:43:21.811Z,79.92
2022-10-22T03:46:23.738Z,80.58
2022-10-22T03:49:26.437Z,81.33
2022-10-22T03:52:28.281Z,81.31
2022-10-22T03:55:30.894Z,80.61
2022-10-22T03:58:32.771Z,80.79
2022-10-22T04:01:34.622Z,80.91
2022-10-22T04:04:36.996Z,81.18
2022-10-22T04:07:38.977Z,81.32
2022-10-22T04:10:41.773Z,80.98
2022-10-22T04:13:44.148Z,79.98
2022-10-22T04:16:45.860Z,80.26
2022-10-22T04:19:50.185Z,80.38
2022-10-22T04:22:51.967Z,80.45
2022-10-22T04:26:06.512Z,81.00
2022-10-22T04:29:11.917Z,81.10
2022-10-22T04:32:17.788Z,80.65
2022-10-22T04:35:19.620Z,80.98
2022-10-22T04:38:21.368Z,80.82
2022-10-22T04:41:26.032Z,81.03
2022-10-22T04:44:27.833Z,81.41
2022-10-22T04:47:30.206Z,81.17
2022-10-22T04:50:32.167Z,81.21
2022-10-22T04:53:35.871Z,82.17
2022-10-22T04:56:38.536Z,82.29
2022-10-22T04:59:40.875Z,81.48
2022-10-22T05:02:45.117Z,80.76
2022-10-22T05:05:47.144Z,81.38
2022-10-22T05:08:53.552Z,81.42
2022-10-22T05:11:55.984Z,81.67
2022-10-22T05:14:59.200Z,81.67
2022-10-22T05:18:02.016Z,81.84
2022-10-22T05:21:15.884Z,80.67
2022-10-22T05:24:19.071Z,82.02
2022-10-22T05:27:21.361Z,81.54
2022-10-22T05:30:23.191Z,81.85
2022-10-22T05:33:26.155Z,81.74
2022-10-22T05:36:28.415Z,82.25
2022-10-22T05:39:30.476Z,81.82
2022-10-22T05:42:33.184Z,81.37
2022-10-22T05:45:42.642Z,81.05
2022-10-22T05:48:44.848Z,81.31
2022-10-22T05:51:47.605Z,81.44
2022-10-22T05:54:50.078Z,82.04
2022-10-22T05:57:51.954Z,81.58
2022-10-22T06:00:54.179Z,82.46
2022-10-22T06:04:05.295Z,83.90
2022-10-22T06:07:09.960Z,81.82
2022-10-22T06:10:16.061Z,81.93
2022-10-22T06:13:17.948Z,81.74
2022-10-22T06:16:20.362Z,82.06
2022-10-22T06:19:23.873Z,80.77
2022-10-22T06:22:26.983Z,79.81
2022-10-22T06:25:29.737Z,80.73
2022-10-22T06:28:32.066Z,78.94
2022-10-22T06:31:36.994Z,79.71
2022-10-22T06:34:39.493Z,81.22
2022-10-22T06:37:42.001Z,79.39
2022-10-22T06:40:45.777Z,79.30
2022-10-22T06:43:48.748Z,83.21
2022-10-22T06:46:54.567Z,81.31
2022-10-22T06:49:57.256Z,79.97
2022-10-22T06:52:59.270Z,79.38
2022-10-22T06:56:09.249Z,78.57
2022-10-22T06:59:11.151Z,76.82
2022-10-22T07:02:13.900Z,77.53
2022-10-22T07:05:17.097Z,77.53
2022-10-22T07:08:19.899Z,76.46
2022-10-22T07:11:27.226Z,77.73
2022-10-22T07:14:32.667Z,77.33
2022-10-22T07:17:35.187Z,76.49
2022-10-22T07:20:37.573Z,75.02
2022-10-22T07:23:39.817Z,73.77
2022-10-22T07:26:42.048Z,70.22
2022-10-22T07:29:44.259Z,69.26
2022-10-22T07:32:47.292Z,69.83
2022-10-22T07:35:50.153Z,70.13
2022-10-22T07:39:00.564Z,69.70
2022-10-22T07:42:03.190Z,69.71
2022-10-22T07:45:06.241Z,71.31
2022-10-22T07:48:08.698Z,73.92
2022-10-22T07:51:10.667Z,73.61
2022-10-22T07:54:13.178Z,74.66
2022-10-22T07:57:15.275Z,74.91
2022-10-22T08:00:20.578Z,74.85
2022-10-22T08:03:25.258Z,75.16
2022-10-22T08:06:28.003Z,75.24
2022-10-22T08:09:29.960Z,73.90
2022-10-22T08:12:31.944Z,72.59
2022-10-22T08:15:39.178Z,70.78
2022-10-22T08:18:44.443Z,71.78
2022-10-22T08:21:46.965Z,71.83
2022-10-22T08:24:53.726Z,72.43
2022-10-22T08:27:56.053Z,70.67
2022-10-22T08:30:59.529Z,70.90
2022-10-22T08:34:01.738Z,69.72
2022-10-22T08:37:03.811Z,70.16
2022-10-22T08:40:06.681Z,68.30
2022-10-22T08:43:14.410Z,64.38
2022-10-22T08:46:37.975Z,64.53
2022-10-22T08:49:42.537Z,63.71
2022-10-22T08:52:47.216Z,62.52
2022-10-22T08:55:53.506Z,62.29
2022-10-22T08:59:03.908Z,61.72
2022-10-22T09:02:38.947Z,60.71
2022-10-22T09:05:57.001Z,61.16
2022-10-22T09:09:00.516Z,61.80
2022-10-22T09:12:04.730Z,61.61
2022-10-22T09:15:09.369Z,61.17
2022-10-22T09:18:33.120Z,62.44
2022-10-22T09:21:53.955Z,62.43
2022-10-22T09:25:14.972Z,63.35
2022-10-22T09:28:18.118Z,63.45
2022-10-22T09:31:21.198Z,62.79
2022-10-22T09:34:23.339Z,64.96
2022-10-22T09:37:28.706Z,65.33
2022-10-22T09:40:31.724Z,66.63
2022-10-22T09:43:35.294Z,67.81
2022-10-22T09:46:44.758Z,68.03
2022-10-22T09:49:46.808Z,68.81
2022-10-22T09:53:01.978Z,69.50
2022-10-22T09:56:10.083Z,69.32
2022-10-22T09:59:17.190Z,69.83
2022-10-22T10:02:37.531Z,69.72
2022-10-22T10:05:41.657Z,70.07
2022-10-22T10:08:43.982Z,71.24
2022-10-22T10:11:50.140Z,72.35
2022-10-22T10:15:01.425Z,72.34
2022-10-22T10:18:18.488Z,73.42
2022-10-22T10:21:36.309Z,74.52
2022-10-22T10:25:10.913Z,76.08
2022-10-22T10:28:31.394Z,78.26
2022-10-22T10:31:42.209Z,78.75
2022-10-22T10:34:51.028Z,81.53
2022-10-22T10:38:33.929Z,81.78
2022-10-22T10:41:48.385Z,83.41
2022-10-22T10:45:33.060Z,83.32
2022-10-22T10:48:57.115Z,85.34
2022-10-22T10:52:21.467Z,84.36
2022-10-22T10:55:33.577Z,85.53
2022-10-22T10:58:45.461Z,86.71
2022-10-22T11:01:54.251Z,84.42
2022-10-22T11:05:12.176Z,84.38
2022-10-22T11:08:29.269Z,82.73
2022-10-22T11:11:51.234Z,81.38
2022-10-22T11:15:04.353Z,84.43
2022-10-22T11:18:15.164Z,86.59
2022-10-22T11:21:23.001Z,86.58
2022-10-22T11:24:29.301Z,86.28
2022-10-22T11:27:43.281Z,88.18
2022-10-22T11:30:49.713Z,88.09
2022-10-22T11:34:04.913Z,87.81
2022-10-22T11:37:14.022Z,89.20
2022-10-22T11:40:21.768Z,90.24
2022-10-22T11:43:35.848Z,90.45
2022-10-22T11:46:47.647Z,90.80
2022-10-22T11:49:59.340Z,92.82
2022-10-22T11:53:13.860Z,93.27
2022-10-22T11:56:25.633Z,93.83
2022-10-22T11:59:49.959Z,93.61
2022-10-22T12:03:03.841Z,92.50
2022-10-22T12:06:12.879Z,93.42
2022-10-22T12:09:14.961Z,94.09
2022-10-22T12:12:21.243Z,94.00
2022-10-22T12:15:27.371Z,93.36
2022-10-22T12:18:41.530Z,92.42
2022-10-22T12:21:49.156Z,92.21
2022-10-22T12:24:58.296Z,92.32
2022-10-22T12:28:01.281Z,93.12
2022-10-22T12:31:03.476Z,92.81
2022-10-22T12:34:05.939Z,90.69
2022-10-22T12:37:08.294Z,91.91
2022-10-22T12:40:17.543Z,92.97
2022-10-22T12:43:25.620Z,90.48
2022-10-22T12:46:30.228Z,88.27
2022-10-22T12:49:39.867Z,87.85
2022-10-22T12:52:44.548Z,87.22
2022-10-22T12:55:49.900Z,87.58
2022-10-22T12:59:04.008Z,86.90
2022-10-22T13:02:27.154Z,87.50
2022-10-22T13:05:39.589Z,88.94
2022-10-22T13:08:42.058Z,89.29
2022-10-22T13:11:49.659Z,88.65
2022-10-22T13:14:51.829Z,89.05
2022-10-22T13:18:18.671Z,88.28
2022-10-22T13:21:28.725Z,90.58
2022-10-22T13:24:31.298Z,90.68
2022-10-22T13:27:33.624Z,90.13
2022-10-22T13:30:37.217Z,88.52
2022-10-22T13:33:44.369Z,90.28
2022-10-22T13:36:47.097Z,89.83
2022-10-22T13:39:49.845Z,89.56
2022-10-22T13:42:51.667Z,88.73
2022-10-22T13:45:56.808Z,89.49
2022-10-22T13:49:00.141Z,89.60
2022-10-22T13:52:02.984Z,90.99
2022-10-22T13:55:20.626Z,90.77
2022-10-22T13:58:25.993Z,90.38
2022-10-22T14:01:28.307Z,88.90
2022-10-22T14:04:30.437Z,87.38
2022-10-22T14:07:32.859Z,89.24
2022-10-22T14:10:34.715Z,90.49
2022-10-22T14:13:37.137Z,90.47
2022-10-22T14:16:39.236Z,89.98
2022-10-22T14:19:41.030Z,89.06
2022-10-22T14:22:43.491Z,89.28
2022-10-22T14:25:45.822Z,87.10
2022-10-22T14:29:08.702Z,87.81
2022-10-22T14:32:17.748Z,88.98
2022-10-22T14:35:22.700Z,88.08
2022-10-22T14:38:24.731Z,86.88
2022-10-22T14:41:29.016Z,86.50
2022-10-22T14:44:30.987Z,86.88
2022-10-22T14:47:33.761Z,86.54
2022-10-22T14:50:35.985Z,87.42
2022-10-22T14:53:38.842Z,87.34
2022-10-22T14:56:41.464Z,87.15
2022-10-22T14:59:43.385Z,86.42
2022-10-22T15:02:46.038Z,87.04
2022-10-22T15:05:54.300Z,88.12
2022-10-22T15:08:57.332Z,88.58
2022-10-22T15:11:59.535Z,87.71
2022-10-22T15:15:02.275Z,88.08
2022-10-22T15:18:04.736Z,88.96
2022-10-22T15:21:12.049Z,90.22
2022-10-22T15:24:13.938Z,91.73
2022-10-22T15:27:17.118Z,93.43
2022-10-22T15:30:19.177Z,93.05
2022-10-22T15:33:22.051Z,94.28
2022-10-22T15:36:24.164Z,95.99
2022-10-22T15:39:28.152Z,95.76
2022-10-22T15:42:30.733Z,95.93
2022-10-22T15:45:33.001Z,95.86
2022-10-22T15:48:36.104Z,95.70
2022-10-22T15:51:38.664Z,95.02
2022-10-22T15:54:43.107Z,93.91
2022-10-22T15:57:45.898Z,95.32
2022-10-22T16:00:48.927Z,96.58
2022-10-22T16:04:01.268Z,95.51
2022-10-22T16:07:03.255Z,96.37
2022-10-22T16:10:08.851Z,96.92
2022-10-22T16:13:11.211Z,97.21
2022-10-22T16:16:13.103Z,96.60
2022-10-22T16:19:17.905Z,97.86
2022-10-22T16:22:20.272Z,98.13
2022-10-22T16:25:23.048Z,98.10
2022-10-22T16:28:25.169Z,96.88
2022-10-22T16:31:27.988Z,98.41
2022-10-22T16:34:30.511Z,97.67
2022-10-22T16:37:32.498Z,97.72
2022-10-22T16:40:35.545Z,98.76
2022-10-22T16:43:38.495Z,100.00
2022-10-22T16:46:40.760Z,100.00
2022-10-22T16:49:44.053Z,100.00
2022-10-22T16:52:46.126Z,100.00
2022-10-22T16:55:49.005Z,100.00
2022-10-22T16:58:53.820Z,100.00
2022-10-22T17:01:56.404Z,100.00
2022-10-22T17:04:59.001Z,100.00
2022-10-22T17:08:01.425Z,100.00
2022-10-22T17:11:08.515Z,100.00
2022-10-22T17:14:11.049Z,100.00
2022-10-22T17:17:13.585Z,100.00
2022-10-22T17:20:15.684Z,100.00
2022-10-22T17:23:18.130Z,100.00
2022-10-22T17:26:22.403Z,100.00
2022-10-22T17:29:25.437Z,100.00
2022-10-22T17:32:27.704Z,99.29
2022-10-22T17:35:35.264Z,97.71
2022-10-22T17:38:38.955Z,96.66
2022-10-22T17:41:41.635Z,95.03
2022-10-22T17:44:43.728Z,94.88
2022-10-22T17:47:46.241Z,94.06
2022-10-22T17:50:51.007Z,94.32
2022-10-22T17:53:55.322Z,94.15
2022-10-22T17:56:57.563Z,93.79
2022-10-22T18:00:00.511Z,93.19
2022-10-22T18:03:02.591Z,92.71
2022-10-22T18:06:10.082Z,93.21
2022-10-22T18:09:18.302Z,93.80
2022-10-22T18:12:22.037Z,94.46
2022-10-22T18:15:24.686Z,93.92
2022-10-22T18:18:29.722Z,94.32
2022-10-22T18:21:31.799Z,92.69
2022-10-22T18:24:36.233Z,92.73
2022-10-22T18:27:39.264Z,93.10
2022-10-22T18:30:42.391Z,93.41
2022-10-22T18:33:44.937Z,94.70
2022-10-22T18:36:46.873Z,98.81
2022-10-22T18:39:50.105Z,100.00
2022-10-22T18:42:52.290Z,97.65
2022-10-22T18:45:55.185Z,96.83
2022-10-22T18:48:58.650Z,96.05
2022-10-22T18:52:01.797Z,94.63
2022-10-22T18:55:04.311Z,94.81
2022-10-22T18:58:07.267Z,95.26
2022-10-22T19:01:15.140Z,94.86
2022-10-22T19:04:18.480Z,94.55
2022-10-22T19:07:20.517Z,95.53
2022-10-22T19:10:22.450Z,94.78
2022-10-22T19:13:25.934Z,94.09
2022-10-22T19:16:28.792Z,95.73
2022-10-22T19:19:31.741Z,94.29
2022-10-22T19:22:34.493Z,94.12
2022-10-22T19:25:37.893Z,94.75
2022-10-22T19:28:40.824Z,93.12
2022-10-22T19:31:48.221Z,92.52
2022-10-22T19:34:51.178Z,93.06
2022-10-22T19:37:54.016Z,94.18
2022-10-22T19:40:56.431Z,94.55
2022-10-22T19:44:00.169Z,93.39
2022-10-22T19:47:02.064Z,94.80
2022-10-22T19:50:04.696Z,95.97
2022-10-22T19:53:07.845Z,96.39
2022-10-22T19:56:11.540Z,96.33
2022-10-22T19:59:16.108Z,95.93
2022-10-22T20:02:18.749Z,95.24
2022-10-22T20:08:25.981Z,92.47
2022-10-22T20:11:29.932Z,93.28
2022-10-22T20:14:32.423Z,93.36
2022-10-22T20:17:34.547Z,93.50
2022-10-22T20:20:39.981Z,93.18
2022-10-22T20:23:43.229Z,93.54
2022-10-22T20:26:47.278Z,93.23
2022-10-22T20:29:50.715Z,93.78
2022-10-22T20:32:53.370Z,92.20
2022-10-22T20:36:04.347Z,94.00
2022-10-22T20:39:08.989Z,92.82
2022-10-22T20:42:11.516Z,92.31
2022-10-22T20:45:13.696Z,93.79
2022-10-22T20:48:15.632Z,91.74
2022-10-22T20:51:17.663Z,91.18
2022-10-22T20:54:20.268Z,93.13
2022-10-22T20:57:23.058Z,94.39
2022-10-22T21:00:25.141Z,92.94
2022-10-22T21:03:27.143Z,92.26
2022-10-22T21:06:30.143Z,92.03
2022-10-22T21:09:34.362Z,91.63
2022-10-22T21:12:42.034Z,92.77
2022-10-22T21:15:44.588Z,93.08
2022-10-22T21:18:47.164Z,93.17
2022-10-22T21:21:49.808Z,95.28
2022-10-22T21:24:52.355Z,95.52
2022-10-22T21:27:56.668Z,96.18
2022-10-22T21:30:58.646Z,94.39
2022-10-22T21:34:00.528Z,94.21
2022-10-22T21:37:02.432Z,93.80
2022-10-22T21:40:05.250Z,93.66
2022-10-22T21:43:07.135Z,93.30
2022-10-22T21:46:12.499Z,93.85
2022-10-22T21:49:14.479Z,94.30
2022-10-22T21:52:17.049Z,95.63
2022-10-22T21:55:19.280Z,97.27
2022-10-22T21:58:21.010Z,100.00
2022-10-22T22:01:24.112Z,100.00
2022-10-22T22:04:26.735Z,100.00
2022-10-22T22:07:29.128Z,100.00
2022-10-22T22:10:31.283Z,100.00
2022-10-22T22:13:33.254Z,100.00
2022-10-22T22:16:36.074Z,100.00
2022-10-22T22:19:41.183Z,100.00
2022-10-22T22:22:43.733Z,100.00
2022-10-22T22:25:46.143Z,100.00
2022-10-22T22:28:48.914Z,100.00
2022-10-22T22:31:50.763Z,100.00
2022-10-22T22:34:52.564Z,100.00
2022-10-22T22:37:55.443Z,100.00
2022-10-22T22:40:59.600Z,100.00
2022-10-22T22:44:02.186Z,100.00
2022-10-22T22:47:05.212Z,100.00
2022-10-22T22:50:07.586Z,100.00
2022-10-22T22:53:09.847Z,100.00
2022-10-22T22:56:18.499Z,100.00
2022-10-22T22:59:20.600Z,100.00
2022-10-22T23:02:22.406Z,100.00
2022-10-22T23:05:25.305Z,100.00
2022-10-22T23:08:27.080Z,100.00
2022-10-22T23:11:29.790Z,100.00
2022-10-22T23:14:32.037Z,100.00
2022-10-22T23:17:33.712Z,100.00
2022-10-22T23:20:38.033Z,100.00
2022-10-22T23:23:43.552Z,100.00
2022-10-22T23:26:47.699Z,100.00
2022-10-22T23:29:49.358Z,100.00
2022-10-22T23:32:51.753Z,100.00
2022-10-22T23:35:53.786Z,100.00
2022-10-22T23:38:55.997Z,100.00
2022-10-22T23:41:58.500Z,99.39
2022-10-22T23:45:00.437Z,98.67
2022-10-22T23:48:03.346Z,98.18
2022-10-22T23:51:09.793Z,100.00
2022-10-22T23:54:14.377Z,100.00
2022-10-22T23:57:16.252Z,100.00
